Lippert, North Dakota
Current Conditions -  °F | °C
As of 9:56 AM on Saturday 20 Dec 2014 (Local Time) from KJMS Reporting Station
Moderate Fog Moderate Fog  
Wind Chill: 13°   Ceiling: 200
Heat Index: 24°   Visibility: 0.25mi
Dew Point: 20°   Wind: 12mph
Humidity: 84%   Direction: 180°S
Pressure: 29.96"   Gusts: NA
Location:  46.8494°N, 98.7424°W
Report Text: KJMS 201556Z AUTO 18010KT 1/4SM FZFG VV002 M04/M07 A2996 RMK AO2 SLP168 I1000 T10441067
Loading
Personal Weather Stations






























Interactive Weather Map New forecast layout! Learn more

10-Day Weather Forecast

Advertisements
Track Severe Weather on mobile